sensor_id;sensor_type;location;lat;lon;timestamp;P1;durP1;ratioP1;P2;durP2;ratioP2
18808;SDS011;9532;54.322;10.116;2022-12-05T00:01:31;6.13;;;3.80;;
18808;SDS011;9532;54.322;10.116;2022-12-05T00:04:02;5.47;;;3.73;;
18808;SDS011;9532;54.322;10.116;2022-12-05T00:06:31;5.83;;;3.70;;
18808;SDS011;9532;54.322;10.116;2022-12-05T00:09:00;5.47;;;3.80;;
18808;SDS011;9532;54.322;10.116;2022-12-05T00:11:28;5.17;;;3.57;;
18808;SDS011;9532;54.322;10.116;2022-12-05T00:13:58;5.23;;;3.43;;
18808;SDS011;9532;54.322;10.116;2022-12-05T00:16:26;5.43;;;3.50;;
18808;SDS011;9532;54.322;10.116;2022-12-05T00:18:57;7.03;;;3.40;;
18808;SDS011;9532;54.322;10.116;2022-12-05T00:21:27;6.70;;;3.60;;
18808;SDS011;9532;54.322;10.116;2022-12-05T00:23:56;5.60;;;3.47;;
18808;SDS011;9532;54.322;10.116;2022-12-05T00:26:24;4.60;;;3.20;;
18808;SDS011;9532;54.322;10.116;2022-12-05T00:28:52;5.83;;;3.57;;
18808;SDS011;9532;54.322;10.116;2022-12-05T00:31:21;4.90;;;3.10;;
18808;SDS011;9532;54.322;10.116;2022-12-05T00:33:49;5.00;;;3.30;;
18808;SDS011;9532;54.322;10.116;2022-12-05T00:36:18;5.07;;;3.10;;
18808;SDS011;9532;54.322;10.116;2022-12-05T00:38:50;4.43;;;3.40;;
18808;SDS011;9532;54.322;10.116;2022-12-05T00:41:19;4.30;;;3.27;;
18808;SDS011;9532;54.322;10.116;2022-12-05T00:43:49;4.70;;;3.10;;
18808;SDS011;9532;54.322;10.116;2022-12-05T00:46:18;4.53;;;3.00;;
18808;SDS011;9532;54.322;10.116;2022-12-05T00:48:46;4.77;;;3.33;;
18808;SDS011;9532;54.322;10.116;2022-12-05T00:51:14;5.70;;;3.27;;
18808;SDS011;9532;54.322;10.116;2022-12-05T00:53:43;5.40;;;3.07;;
18808;SDS011;9532;54.322;10.116;2022-12-05T00:56:14;5.17;;;3.47;;
18808;SDS011;9532;54.322;10.116;2022-12-05T00:58:44;5.93;;;3.17;;
18808;SDS011;9532;54.322;10.116;2022-12-05T01:01:12;5.37;;;3.13;;
18808;SDS011;9532;54.322;10.116;2022-12-05T01:03:40;4.37;;;3.10;;
18808;SDS011;9532;54.322;10.116;2022-12-05T01:06:09;4.73;;;2.97;;
18808;SDS011;9532;54.322;10.116;2022-12-05T01:08:37;4.40;;;2.97;;
18808;SDS011;9532;54.322;10.116;2022-12-05T01:11:05;5.63;;;3.27;;
18808;SDS011;9532;54.322;10.116;2022-12-05T01:13:35;4.57;;;3.10;;
18808;SDS011;9532;54.322;10.116;2022-12-05T01:16:03;4.40;;;3.03;;
18808;SDS011;9532;54.322;10.116;2022-12-05T01:18:31;3.70;;;2.73;;
18808;SDS011;9532;54.322;10.116;2022-12-05T01:20:58;3.93;;;2.93;;
18808;SDS011;9532;54.322;10.116;2022-12-05T01:23:26;4.90;;;2.93;;
18808;SDS011;9532;54.322;10.116;2022-12-05T01:25:53;4.57;;;2.63;;
18808;SDS011;9532;54.322;10.116;2022-12-05T01:28:20;4.43;;;2.83;;
18808;SDS011;9532;54.322;10.116;2022-12-05T01:30:49;4.83;;;2.87;;
18808;SDS011;9532;54.322;10.116;2022-12-05T01:33:16;3.77;;;2.60;;
18808;SDS011;9532;54.322;10.116;2022-12-05T01:35:43;3.93;;;2.70;;
18808;SDS011;9532;54.322;10.116;2022-12-05T01:38:11;4.37;;;2.80;;
18808;SDS011;9532;54.322;10.116;2022-12-05T01:40:39;3.47;;;2.60;;
18808;SDS011;9532;54.322;10.116;2022-12-05T01:43:09;4.40;;;3.03;;
18808;SDS011;9532;54.322;10.116;2022-12-05T01:45:41;4.03;;;2.60;;
18808;SDS011;9532;54.322;10.116;2022-12-05T01:48:13;4.67;;;2.87;;
18808;SDS011;9532;54.322;10.116;2022-12-05T01:50:44;3.77;;;2.57;;
18808;SDS011;9532;54.322;10.116;2022-12-05T01:53:12;4.23;;;2.87;;
18808;SDS011;9532;54.322;10.116;2022-12-05T01:55:41;3.70;;;2.50;;
18808;SDS011;9532;54.322;10.116;2022-12-05T01:58:08;3.80;;;2.50;;
18808;SDS011;9532;54.322;10.116;2022-12-05T02:00:36;4.40;;;2.70;;
18808;SDS011;9532;54.322;10.116;2022-12-05T02:03:06;3.87;;;2.20;;
18808;SDS011;9532;54.322;10.116;2022-12-05T02:05:36;6.07;;;2.73;;
18808;SDS011;9532;54.322;10.116;2022-12-05T02:08:05;3.53;;;2.40;;
18808;SDS011;9532;54.322;10.116;2022-12-05T02:10:35;3.57;;;2.47;;
18808;SDS011;9532;54.322;10.116;2022-12-05T02:13:09;3.63;;;2.40;;
18808;SDS011;9532;54.322;10.116;2022-12-05T02:15:51;2.73;;;2.10;;
18808;SDS011;9532;54.322;10.116;2022-12-05T02:18:28;4.10;;;2.40;;
18808;SDS011;9532;54.322;10.116;2022-12-05T02:27:29;3.50;;;2.40;;
18808;SDS011;9532;54.322;10.116;2022-12-05T02:30:15;2.70;;;2.00;;
18808;SDS011;9532;54.322;10.116;2022-12-05T02:32:58;2.63;;;1.90;;
18808;SDS011;9532;54.322;10.116;2022-12-05T02:35:40;2.63;;;1.97;;
18808;SDS011;9532;54.322;10.116;2022-12-05T02:38:17;3.20;;;2.20;;
18808;SDS011;9532;54.322;10.116;2022-12-05T02:40:54;3.43;;;2.40;;
18808;SDS011;9532;54.322;10.116;2022-12-05T02:43:30;3.83;;;2.00;;
18808;SDS011;9532;54.322;10.116;2022-12-05T02:46:05;3.27;;;2.10;;
18808;SDS011;9532;54.322;10.116;2022-12-05T02:48:36;2.90;;;2.00;;
18808;SDS011;9532;54.322;10.116;2022-12-05T02:51:06;2.73;;;2.13;;
18808;SDS011;9532;54.322;10.116;2022-12-05T02:53:37;4.07;;;2.30;;
18808;SDS011;9532;54.322;10.116;2022-12-05T02:56:06;3.13;;;2.17;;
18808;SDS011;9532;54.322;10.116;2022-12-05T02:58:35;3.07;;;2.17;;
18808;SDS011;9532;54.322;10.116;2022-12-05T03:01:09;3.53;;;2.10;;
18808;SDS011;9532;54.322;10.116;2022-12-05T03:03:36;3.57;;;2.20;;
18808;SDS011;9532;54.322;10.116;2022-12-05T03:06:04;2.50;;;1.97;;
18808;SDS011;9532;54.322;10.116;2022-12-05T03:08:36;3.20;;;2.27;;
18808;SDS011;9532;54.322;10.116;2022-12-05T03:11:06;3.03;;;2.20;;
18808;SDS011;9532;54.322;10.116;2022-12-05T03:13:34;2.70;;;2.03;;
18808;SDS011;9532;54.322;10.116;2022-12-05T03:16:10;4.00;;;2.10;;
18808;SDS011;9532;54.322;10.116;2022-12-05T03:18:41;2.60;;;2.00;;
18808;SDS011;9532;54.322;10.116;2022-12-05T03:21:16;3.57;;;2.30;;
18808;SDS011;9532;54.322;10.116;2022-12-05T03:23:51;3.50;;;2.27;;
18808;SDS011;9532;54.322;10.116;2022-12-05T03:26:29;2.97;;;2.00;;
18808;SDS011;9532;54.322;10.116;2022-12-05T03:29:06;3.17;;;2.03;;
18808;SDS011;9532;54.322;10.116;2022-12-05T03:31:49;3.23;;;2.00;;
18808;SDS011;9532;54.322;10.116;2022-12-05T03:34:25;2.93;;;2.00;;
18808;SDS011;9532;54.322;10.116;2022-12-05T03:37:04;3.60;;;1.93;;
18808;SDS011;9532;54.322;10.116;2022-12-05T03:39:34;2.73;;;1.90;;
18808;SDS011;9532;54.322;10.116;2022-12-05T03:42:10;2.97;;;2.10;;
18808;SDS011;9532;54.322;10.116;2022-12-05T03:44:41;2.90;;;1.90;;
18808;SDS011;9532;54.322;10.116;2022-12-05T03:47:15;2.50;;;1.90;;
18808;SDS011;9532;54.322;10.116;2022-12-05T03:49:48;2.67;;;1.83;;
18808;SDS011;9532;54.322;10.116;2022-12-05T03:52:19;2.63;;;2.00;;
18808;SDS011;9532;54.322;10.116;2022-12-05T03:54:52;3.47;;;2.00;;
18808;SDS011;9532;54.322;10.116;2022-12-05T03:57:22;2.83;;;1.83;;
18808;SDS011;9532;54.322;10.116;2022-12-05T03:59:54;3.83;;;2.10;;
18808;SDS011;9532;54.322;10.116;2022-12-05T04:02:27;3.53;;;2.20;;
18808;SDS011;9532;54.322;10.116;2022-12-05T04:04:59;3.83;;;2.00;;
18808;SDS011;9532;54.322;10.116;2022-12-05T04:07:33;2.40;;;1.80;;
18808;SDS011;9532;54.322;10.116;2022-12-05T04:10:05;4.77;;;1.83;;
18808;SDS011;9532;54.322;10.116;2022-12-05T04:12:37;3.87;;;2.17;;
18808;SDS011;9532;54.322;10.116;2022-12-05T04:15:08;3.13;;;1.87;;
18808;SDS011;9532;54.322;10.116;2022-12-05T04:17:44;3.20;;;2.20;;
18808;SDS011;9532;54.322;10.116;2022-12-05T04:20:15;3.90;;;2.17;;
18808;SDS011;9532;54.322;10.116;2022-12-05T04:23:03;3.13;;;2.00;;
18808;SDS011;9532;54.322;10.116;2022-12-05T04:25:33;3.30;;;2.07;;
18808;SDS011;9532;54.322;10.116;2022-12-05T04:28:15;3.13;;;2.17;;
18808;SDS011;9532;54.322;10.116;2022-12-05T04:30:53;3.10;;;2.20;;
18808;SDS011;9532;54.322;10.116;2022-12-05T04:33:31;2.53;;;1.83;;
18808;SDS011;9532;54.322;10.116;2022-12-05T04:36:05;3.30;;;2.13;;
18808;SDS011;9532;54.322;10.116;2022-12-05T04:38:38;3.10;;;2.40;;
18808;SDS011;9532;54.322;10.116;2022-12-05T04:41:12;2.87;;;2.10;;
18808;SDS011;9532;54.322;10.116;2022-12-05T04:43:42;2.90;;;2.00;;
18808;SDS011;9532;54.322;10.116;2022-12-05T04:46:13;3.63;;;2.80;;
18808;SDS011;9532;54.322;10.116;2022-12-05T04:48:47;3.23;;;2.17;;
18808;SDS011;9532;54.322;10.116;2022-12-05T04:51:19;4.07;;;2.37;;
18808;SDS011;9532;54.322;10.116;2022-12-05T04:53:51;3.77;;;2.40;;
18808;SDS011;9532;54.322;10.116;2022-12-05T04:56:23;3.30;;;2.47;;
18808;SDS011;9532;54.322;10.116;2022-12-05T04:58:53;3.23;;;2.17;;
18808;SDS011;9532;54.322;10.116;2022-12-05T05:01:21;3.50;;;2.33;;
18808;SDS011;9532;54.322;10.116;2022-12-05T05:03:55;3.43;;;2.13;;
18808;SDS011;9532;54.322;10.116;2022-12-05T05:06:26;3.47;;;2.20;;
18808;SDS011;9532;54.322;10.116;2022-12-05T05:08:55;2.97;;;2.17;;
18808;SDS011;9532;54.322;10.116;2022-12-05T05:11:23;3.47;;;2.30;;
18808;SDS011;9532;54.322;10.116;2022-12-05T05:13:52;2.93;;;2.10;;
18808;SDS011;9532;54.322;10.116;2022-12-05T05:16:20;4.03;;;2.50;;
18808;SDS011;9532;54.322;10.116;2022-12-05T05:18:49;4.30;;;2.53;;
18808;SDS011;9532;54.322;10.116;2022-12-05T05:21:19;3.40;;;2.30;;
18808;SDS011;9532;54.322;10.116;2022-12-05T05:23:48;4.47;;;2.90;;
18808;SDS011;9532;54.322;10.116;2022-12-05T05:26:16;3.20;;;2.40;;
18808;SDS011;9532;54.322;10.116;2022-12-05T05:28:44;4.20;;;2.63;;
18808;SDS011;9532;54.322;10.116;2022-12-05T05:31:11;3.43;;;2.33;;
18808;SDS011;9532;54.322;10.116;2022-12-05T05:33:39;4.30;;;2.53;;
18808;SDS011;9532;54.322;10.116;2022-12-05T05:36:08;3.90;;;2.83;;
18808;SDS011;9532;54.322;10.116;2022-12-05T05:38:39;3.53;;;2.53;;
18808;SDS011;9532;54.322;10.116;2022-12-05T05:41:11;3.63;;;2.40;;
18808;SDS011;9532;54.322;10.116;2022-12-05T05:43:39;4.33;;;2.70;;
18808;SDS011;9532;54.322;10.116;2022-12-05T05:46:07;3.90;;;2.50;;
18808;SDS011;9532;54.322;10.116;2022-12-05T05:48:34;4.17;;;2.67;;
18808;SDS011;9532;54.322;10.116;2022-12-05T05:51:02;4.33;;;2.33;;
18808;SDS011;9532;54.322;10.116;2022-12-05T05:53:30;3.37;;;2.37;;
18808;SDS011;9532;54.322;10.116;2022-12-05T05:56:02;3.50;;;2.50;;
18808;SDS011;9532;54.322;10.116;2022-12-05T05:58:30;4.20;;;2.23;;
18808;SDS011;9532;54.322;10.116;2022-12-05T06:01:01;2.97;;;2.00;;
18808;SDS011;9532;54.322;10.116;2022-12-05T06:03:29;4.23;;;2.60;;
18808;SDS011;9532;54.322;10.116;2022-12-05T06:05:57;4.10;;;2.33;;
18808;SDS011;9532;54.322;10.116;2022-12-05T06:08:24;5.07;;;2.30;;
18808;SDS011;9532;54.322;10.116;2022-12-05T06:10:54;3.33;;;2.23;;
18808;SDS011;9532;54.322;10.116;2022-12-05T06:13:23;5.30;;;2.30;;
18808;SDS011;9532;54.322;10.116;2022-12-05T06:15:50;7.10;;;2.20;;
18808;SDS011;9532;54.322;10.116;2022-12-05T06:18:17;4.87;;;2.30;;
18808;SDS011;9532;54.322;10.116;2022-12-05T06:20:50;2.87;;;2.00;;
18808;SDS011;9532;54.322;10.116;2022-12-05T06:23:18;19.83;;;2.00;;
18808;SDS011;9532;54.322;10.116;2022-12-05T06:25:46;4.53;;;1.90;;
18808;SDS011;9532;54.322;10.116;2022-12-05T06:28:14;5.13;;;2.10;;
18808;SDS011;9532;54.322;10.116;2022-12-05T06:30:43;5.07;;;2.17;;
18808;SDS011;9532;54.322;10.116;2022-12-05T06:33:10;9.83;;;2.10;;
18808;SDS011;9532;54.322;10.116;2022-12-05T06:35:38;11.77;;;2.00;;
18808;SDS011;9532;54.322;10.116;2022-12-05T06:38:05;5.50;;;1.80;;
18808;SDS011;9532;54.322;10.116;2022-12-05T06:40:33;7.13;;;2.17;;
18808;SDS011;9532;54.322;10.116;2022-12-05T06:43:01;10.40;;;2.20;;
18808;SDS011;9532;54.322;10.116;2022-12-05T06:45:28;6.23;;;2.23;;
18808;SDS011;9532;54.322;10.116;2022-12-05T06:47:57;6.57;;;2.40;;
18808;SDS011;9532;54.322;10.116;2022-12-05T06:50:24;11.03;;;2.43;;
18808;SDS011;9532;54.322;10.116;2022-12-05T06:52:51;7.03;;;2.17;;
18808;SDS011;9532;54.322;10.116;2022-12-05T06:55:18;6.03;;;1.90;;
18808;SDS011;9532;54.322;10.116;2022-12-05T06:57:46;4.37;;;2.03;;
18808;SDS011;9532;54.322;10.116;2022-12-05T07:00:13;6.90;;;2.07;;
18808;SDS011;9532;54.322;10.116;2022-12-05T07:03:00;3.77;;;1.70;;
18808;SDS011;9532;54.322;10.116;2022-12-05T07:05:27;11.50;;;2.00;;
18808;SDS011;9532;54.322;10.116;2022-12-05T07:07:54;7.37;;;1.80;;
18808;SDS011;9532;54.322;10.116;2022-12-05T07:10:21;3.90;;;1.60;;
18808;SDS011;9532;54.322;10.116;2022-12-05T07:12:48;4.27;;;1.60;;
18808;SDS011;9532;54.322;10.116;2022-12-05T07:15:16;3.57;;;1.50;;
18808;SDS011;9532;54.322;10.116;2022-12-05T07:17:43;9.27;;;1.70;;
18808;SDS011;9532;54.322;10.116;2022-12-05T07:20:12;5.90;;;1.50;;
18808;SDS011;9532;54.322;10.116;2022-12-05T07:22:42;9.07;;;1.50;;
18808;SDS011;9532;54.322;10.116;2022-12-05T07:25:09;4.97;;;1.30;;
18808;SDS011;9532;54.322;10.116;2022-12-05T07:27:36;5.77;;;1.50;;
18808;SDS011;9532;54.322;10.116;2022-12-05T07:30:04;4.53;;;1.57;;
18808;SDS011;9532;54.322;10.116;2022-12-05T07:32:32;3.87;;;1.50;;
18808;SDS011;9532;54.322;10.116;2022-12-05T07:35:00;2.60;;;1.50;;
18808;SDS011;9532;54.322;10.116;2022-12-05T07:37:29;2.57;;;1.40;;
18808;SDS011;9532;54.322;10.116;2022-12-05T07:39:55;5.47;;;1.43;;
18808;SDS011;9532;54.322;10.116;2022-12-05T07:42:23;5.77;;;1.70;;
18808;SDS011;9532;54.322;10.116;2022-12-05T07:44:50;3.27;;;1.30;;
18808;SDS011;9532;54.322;10.116;2022-12-05T07:47:17;5.20;;;1.57;;
18808;SDS011;9532;54.322;10.116;2022-12-05T07:49:44;5.63;;;1.60;;
18808;SDS011;9532;54.322;10.116;2022-12-05T07:52:12;5.03;;;1.47;;
18808;SDS011;9532;54.322;10.116;2022-12-05T07:54:40;4.10;;;1.37;;
18808;SDS011;9532;54.322;10.116;2022-12-05T07:57:08;8.17;;;1.43;;
18808;SDS011;9532;54.322;10.116;2022-12-05T07:59:35;6.93;;;1.20;;
18808;SDS011;9532;54.322;10.116;2022-12-05T08:02:02;2.97;;;1.13;;
18808;SDS011;9532;54.322;10.116;2022-12-05T08:04:29;9.43;;;1.30;;
18808;SDS011;9532;54.322;10.116;2022-12-05T08:06:56;2.97;;;1.20;;
18808;SDS011;9532;54.322;10.116;2022-12-05T08:09:24;3.90;;;1.40;;
18808;SDS011;9532;54.322;10.116;2022-12-05T08:11:53;2.43;;;1.20;;
18808;SDS011;9532;54.322;10.116;2022-12-05T08:14:20;2.93;;;1.10;;
18808;SDS011;9532;54.322;10.116;2022-12-05T08:16:47;4.20;;;1.33;;
18808;SDS011;9532;54.322;10.116;2022-12-05T08:19:14;3.33;;;1.20;;
18808;SDS011;9532;54.322;10.116;2022-12-05T08:21:42;9.63;;;1.50;;
18808;SDS011;9532;54.322;10.116;2022-12-05T08:24:09;2.00;;;1.30;;
18808;SDS011;9532;54.322;10.116;2022-12-05T08:26:37;1.90;;;1.10;;
18808;SDS011;9532;54.322;10.116;2022-12-05T08:29:06;3.00;;;0.93;;
18808;SDS011;9532;54.322;10.116;2022-12-05T08:31:38;2.53;;;1.23;;
18808;SDS011;9532;54.322;10.116;2022-12-05T08:34:11;4.30;;;1.37;;
18808;SDS011;9532;54.322;10.116;2022-12-05T08:36:40;1.97;;;1.10;;
18808;SDS011;9532;54.322;10.116;2022-12-05T08:39:07;2.40;;;1.17;;
18808;SDS011;9532;54.322;10.116;2022-12-05T08:41:38;1.80;;;1.00;;
18808;SDS011;9532;54.322;10.116;2022-12-05T08:44:07;3.60;;;1.03;;
18808;SDS011;9532;54.322;10.116;2022-12-05T08:46:40;3.13;;;1.37;;
18808;SDS011;9532;54.322;10.116;2022-12-05T08:49:09;2.77;;;0.97;;
18808;SDS011;9532;54.322;10.116;2022-12-05T08:51:37;1.33;;;1.00;;
18808;SDS011;9532;54.322;10.116;2022-12-05T08:54:05;1.33;;;1.00;;
18808;SDS011;9532;54.322;10.116;2022-12-05T08:56:32;2.97;;;1.10;;
18808;SDS011;9532;54.322;10.116;2022-12-05T08:59:00;3.27;;;1.27;;
18808;SDS011;9532;54.322;10.116;2022-12-05T09:01:29;1.80;;;0.70;;
18808;SDS011;9532;54.322;10.116;2022-12-05T09:03:57;2.10;;;0.80;;
18808;SDS011;9532;54.322;10.116;2022-12-05T09:06:26;4.93;;;1.10;;
18808;SDS011;9532;54.322;10.116;2022-12-05T09:08:55;1.67;;;0.93;;
18808;SDS011;9532;54.322;10.116;2022-12-05T09:11:25;2.63;;;0.80;;
18808;SDS011;9532;54.322;10.116;2022-12-05T09:13:55;3.23;;;0.93;;
18808;SDS011;9532;54.322;10.116;2022-12-05T09:16:24;4.73;;;0.80;;
18808;SDS011;9532;54.322;10.116;2022-12-05T09:18:55;2.70;;;0.70;;
18808;SDS011;9532;54.322;10.116;2022-12-05T09:21:24;1.73;;;0.90;;
18808;SDS011;9532;54.322;10.116;2022-12-05T09:23:54;3.13;;;0.97;;
18808;SDS011;9532;54.322;10.116;2022-12-05T09:26:23;2.10;;;0.80;;
18808;SDS011;9532;54.322;10.116;2022-12-05T09:28:54;1.40;;;0.70;;
18808;SDS011;9532;54.322;10.116;2022-12-05T09:31:22;2.37;;;0.70;;
18808;SDS011;9532;54.322;10.116;2022-12-05T09:33:51;5.97;;;1.00;;
18808;SDS011;9532;54.322;10.116;2022-12-05T09:36:22;5.77;;;1.00;;
18808;SDS011;9532;54.322;10.116;2022-12-05T09:38:50;1.37;;;0.80;;
18808;SDS011;9532;54.322;10.116;2022-12-05T09:41:23;1.07;;;0.70;;
18808;SDS011;9532;54.322;10.116;2022-12-05T09:44:19;1.90;;;0.90;;
18808;SDS011;9532;54.322;10.116;2022-12-05T09:46:53;2.43;;;0.97;;
18808;SDS011;9532;54.322;10.116;2022-12-05T09:49:24;16.50;;;1.10;;
18808;SDS011;9532;54.322;10.116;2022-12-05T09:51:55;3.63;;;0.80;;
18808;SDS011;9532;54.322;10.116;2022-12-05T09:54:23;6.93;;;1.00;;
18808;SDS011;9532;54.322;10.116;2022-12-05T09:56:51;3.60;;;1.00;;
18808;SDS011;9532;54.322;10.116;2022-12-05T09:59:19;1.50;;;1.00;;
18808;SDS011;9532;54.322;10.116;2022-12-05T10:01:48;2.80;;;1.40;;
18808;SDS011;9532;54.322;10.116;2022-12-05T10:04:38;3.53;;;1.37;;
18808;SDS011;9532;54.322;10.116;2022-12-05T10:07:22;2.93;;;1.43;;
18808;SDS011;9532;54.322;10.116;2022-12-05T10:09:57;2.77;;;1.40;;
18808;SDS011;9532;54.322;10.116;2022-12-05T10:12:40;4.97;;;1.50;;
18808;SDS011;9532;54.322;10.116;2022-12-05T10:15:19;2.23;;;1.43;;
18808;SDS011;9532;54.322;10.116;2022-12-05T10:18:01;2.33;;;1.50;;
18808;SDS011;9532;54.322;10.116;2022-12-05T10:20:34;2.87;;;1.60;;
18808;SDS011;9532;54.322;10.116;2022-12-05T10:23:07;2.27;;;1.67;;
18808;SDS011;9532;54.322;10.116;2022-12-05T10:25:40;14.77;;;2.00;;
18808;SDS011;9532;54.322;10.116;2022-12-05T10:28:10;3.20;;;1.70;;
18808;SDS011;9532;54.322;10.116;2022-12-05T10:30:42;4.97;;;1.77;;
18808;SDS011;9532;54.322;10.116;2022-12-05T10:33:13;2.40;;;1.60;;
18808;SDS011;9532;54.322;10.116;2022-12-05T10:35:43;2.47;;;1.57;;
18808;SDS011;9532;54.322;10.116;2022-12-05T10:38:13;4.10;;;1.90;;
18808;SDS011;9532;54.322;10.116;2022-12-05T10:40:49;3.27;;;1.80;;
18808;SDS011;9532;54.322;10.116;2022-12-05T10:43:20;2.77;;;1.70;;
18808;SDS011;9532;54.322;10.116;2022-12-05T10:45:51;2.73;;;1.50;;
18808;SDS011;9532;54.322;10.116;2022-12-05T10:48:19;2.23;;;1.33;;
18808;SDS011;9532;54.322;10.116;2022-12-05T10:50:48;4.13;;;1.83;;
18808;SDS011;9532;54.322;10.116;2022-12-05T10:53:18;6.93;;;1.30;;
18808;SDS011;9532;54.322;10.116;2022-12-05T10:55:49;3.80;;;1.53;;
18808;SDS011;9532;54.322;10.116;2022-12-05T10:58:18;2.20;;;1.47;;
18808;SDS011;9532;54.322;10.116;2022-12-05T11:00:49;3.07;;;1.97;;
18808;SDS011;9532;54.322;10.116;2022-12-05T11:03:23;4.20;;;2.00;;
18808;SDS011;9532;54.322;10.116;2022-12-05T11:05:54;4.43;;;1.97;;
18808;SDS011;9532;54.322;10.116;2022-12-05T11:08:25;4.03;;;2.20;;
18808;SDS011;9532;54.322;10.116;2022-12-05T11:10:59;3.93;;;2.10;;
18808;SDS011;9532;54.322;10.116;2022-12-05T11:13:28;3.30;;;1.83;;
18808;SDS011;9532;54.322;10.116;2022-12-05T11:15:57;2.53;;;1.67;;
18808;SDS011;9532;54.322;10.116;2022-12-05T11:18:26;3.77;;;1.50;;
18808;SDS011;9532;54.322;10.116;2022-12-05T11:20:56;3.90;;;1.70;;
18808;SDS011;9532;54.322;10.116;2022-12-05T11:23:37;5.63;;;1.77;;
18808;SDS011;9532;54.322;10.116;2022-12-05T11:26:13;3.30;;;2.20;;
18808;SDS011;9532;54.322;10.116;2022-12-05T11:28:43;5.80;;;2.00;;
18808;SDS011;9532;54.322;10.116;2022-12-05T11:31:21;3.53;;;1.80;;
18808;SDS011;9532;54.322;10.116;2022-12-05T11:34:00;3.60;;;1.70;;
18808;SDS011;9532;54.322;10.116;2022-12-05T11:36:34;3.30;;;1.97;;
18808;SDS011;9532;54.322;10.116;2022-12-05T11:39:07;3.37;;;1.90;;
18808;SDS011;9532;54.322;10.116;2022-12-05T11:41:39;2.43;;;1.80;;
18808;SDS011;9532;54.322;10.116;2022-12-05T11:44:49;2.67;;;1.60;;
18808;SDS011;9532;54.322;10.116;2022-12-05T11:47:32;3.67;;;2.00;;
18808;SDS011;9532;54.322;10.116;2022-12-05T11:50:18;5.30;;;2.10;;
18808;SDS011;9532;54.322;10.116;2022-12-05T11:52:59;3.03;;;2.20;;
18808;SDS011;9532;54.322;10.116;2022-12-05T11:55:38;10.17;;;2.17;;
18808;SDS011;9532;54.322;10.116;2022-12-05T11:58:13;5.67;;;1.90;;
18808;SDS011;9532;54.322;10.116;2022-12-05T12:01:01;7.37;;;2.40;;
18808;SDS011;9532;54.322;10.116;2022-12-05T12:03:47;5.20;;;2.30;;
18808;SDS011;9532;54.322;10.116;2022-12-05T12:06:41;7.17;;;2.37;;
18808;SDS011;9532;54.322;10.116;2022-12-05T12:09:22;7.97;;;2.40;;
18808;SDS011;9532;54.322;10.116;2022-12-05T12:12:01;5.97;;;2.30;;
18808;SDS011;9532;54.322;10.116;2022-12-05T12:14:40;7.00;;;2.20;;
18808;SDS011;9532;54.322;10.116;2022-12-05T12:17:16;6.13;;;1.90;;
18808;SDS011;9532;54.322;10.116;2022-12-05T12:19:59;5.63;;;2.00;;
18808;SDS011;9532;54.322;10.116;2022-12-05T12:22:47;7.47;;;2.70;;
18808;SDS011;9532;54.322;10.116;2022-12-05T12:25:30;6.33;;;2.23;;
18808;SDS011;9532;54.322;10.116;2022-12-05T12:28:09;7.73;;;3.03;;
18808;SDS011;9532;54.322;10.116;2022-12-05T12:33:40;9.37;;;2.50;;
18808;SDS011;9532;54.322;10.116;2022-12-05T12:36:14;10.10;;;2.50;;
18808;SDS011;9532;54.322;10.116;2022-12-05T12:38:48;7.23;;;2.30;;
18808;SDS011;9532;54.322;10.116;2022-12-05T12:41:44;11.60;;;2.60;;
18808;SDS011;9532;54.322;10.116;2022-12-05T12:44:28;10.03;;;2.50;;
18808;SDS011;9532;54.322;10.116;2022-12-05T12:47:18;11.87;;;3.00;;
18808;SDS011;9532;54.322;10.116;2022-12-05T12:49:58;12.03;;;3.17;;
18808;SDS011;9532;54.322;10.116;2022-12-05T12:52:37;9.67;;;2.57;;
18808;SDS011;9532;54.322;10.116;2022-12-05T12:55:20;11.83;;;2.60;;
18808;SDS011;9532;54.322;10.116;2022-12-05T12:57:59;9.73;;;2.53;;
18808;SDS011;9532;54.322;10.116;2022-12-05T13:00:41;14.10;;;2.70;;
18808;SDS011;9532;54.322;10.116;2022-12-05T13:03:21;10.80;;;2.80;;
18808;SDS011;9532;54.322;10.116;2022-12-05T13:05:53;8.90;;;2.60;;
18808;SDS011;9532;54.322;10.116;2022-12-05T13:08:25;11.13;;;2.47;;
18808;SDS011;9532;54.322;10.116;2022-12-05T13:10:58;7.37;;;2.43;;
18808;SDS011;9532;54.322;10.116;2022-12-05T13:13:29;10.67;;;2.73;;
18808;SDS011;9532;54.322;10.116;2022-12-05T13:16:03;6.50;;;2.70;;
18808;SDS011;9532;54.322;10.116;2022-12-05T13:18:33;13.83;;;3.40;;
18808;SDS011;9532;54.322;10.116;2022-12-05T13:21:02;11.23;;;3.53;;
18808;SDS011;9532;54.322;10.116;2022-12-05T13:23:37;10.20;;;3.20;;
18808;SDS011;9532;54.322;10.116;2022-12-05T13:26:11;12.00;;;3.00;;
18808;SDS011;9532;54.322;10.116;2022-12-05T13:28:39;8.83;;;3.03;;
18808;SDS011;9532;54.322;10.116;2022-12-05T13:31:18;11.43;;;3.20;;
18808;SDS011;9532;54.322;10.116;2022-12-05T13:33:59;8.57;;;2.87;;
18808;SDS011;9532;54.322;10.116;2022-12-05T13:36:26;8.10;;;2.70;;
18808;SDS011;9532;54.322;10.116;2022-12-05T13:39:17;9.00;;;3.33;;
18808;SDS011;9532;54.322;10.116;2022-12-05T13:42:04;8.00;;;3.00;;
18808;SDS011;9532;54.322;10.116;2022-12-05T13:44:39;5.80;;;2.80;;
18808;SDS011;9532;54.322;10.116;2022-12-05T13:47:18;13.97;;;3.10;;
18808;SDS011;9532;54.322;10.116;2022-12-05T13:49:51;12.10;;;2.93;;
18808;SDS011;9532;54.322;10.116;2022-12-05T13:52:22;9.07;;;2.90;;
18808;SDS011;9532;54.322;10.116;2022-12-05T13:54:54;7.43;;;2.93;;
18808;SDS011;9532;54.322;10.116;2022-12-05T13:57:44;4.53;;;2.67;;
18808;SDS011;9532;54.322;10.116;2022-12-05T14:00:25;6.40;;;2.90;;
18808;SDS011;9532;54.322;10.116;2022-12-05T14:02:57;5.77;;;2.80;;
18808;SDS011;9532;54.322;10.116;2022-12-05T14:11:19;6.03;;;3.00;;
18808;SDS011;9532;54.322;10.116;2022-12-05T14:13:47;7.30;;;3.83;;
18808;SDS011;9532;54.322;10.116;2022-12-05T14:22:35;8.27;;;4.43;;
18808;SDS011;9532;54.322;10.116;2022-12-05T14:25:18;8.37;;;4.50;;
18808;SDS011;9532;54.322;10.116;2022-12-05T14:27:55;7.97;;;4.07;;
18808;SDS011;9532;54.322;10.116;2022-12-05T14:30:28;8.70;;;3.90;;
18808;SDS011;9532;54.322;10.116;2022-12-05T14:33:00;5.93;;;3.80;;
18808;SDS011;9532;54.322;10.116;2022-12-05T14:35:29;6.50;;;3.70;;
18808;SDS011;9532;54.322;10.116;2022-12-05T14:38:17;8.37;;;3.90;;
18808;SDS011;9532;54.322;10.116;2022-12-05T14:40:48;6.87;;;3.93;;
18808;SDS011;9532;54.322;10.116;2022-12-05T14:43:16;6.87;;;4.00;;
18808;SDS011;9532;54.322;10.116;2022-12-05T14:45:54;13.03;;;4.60;;
18808;SDS011;9532;54.322;10.116;2022-12-05T14:48:26;8.90;;;4.63;;
18808;SDS011;9532;54.322;10.116;2022-12-05T14:50:57;10.07;;;4.43;;
18808;SDS011;9532;54.322;10.116;2022-12-05T14:53:34;9.70;;;4.67;;
18808;SDS011;9532;54.322;10.116;2022-12-05T14:56:09;8.97;;;4.87;;
18808;SDS011;9532;54.322;10.116;2022-12-05T14:58:43;7.93;;;4.73;;
18808;SDS011;9532;54.322;10.116;2022-12-05T15:01:17;7.57;;;3.87;;
18808;SDS011;9532;54.322;10.116;2022-12-05T15:04:02;9.00;;;4.70;;
18808;SDS011;9532;54.322;10.116;2022-12-05T15:06:34;8.10;;;4.10;;
18808;SDS011;9532;54.322;10.116;2022-12-05T15:09:26;8.97;;;4.90;;
18808;SDS011;9532;54.322;10.116;2022-12-05T15:12:11;7.77;;;4.40;;
18808;SDS011;9532;54.322;10.116;2022-12-05T15:14:46;11.07;;;4.13;;
18808;SDS011;9532;54.322;10.116;2022-12-05T15:17:20;12.47;;;4.50;;
18808;SDS011;9532;54.322;10.116;2022-12-05T15:19:51;7.67;;;4.13;;
18808;SDS011;9532;54.322;10.116;2022-12-05T15:22:27;6.23;;;3.73;;
18808;SDS011;9532;54.322;10.116;2022-12-05T15:27:52;7.00;;;4.20;;
18808;SDS011;9532;54.322;10.116;2022-12-05T15:30:21;7.03;;;4.00;;
18808;SDS011;9532;54.322;10.116;2022-12-05T15:32:48;6.90;;;4.20;;
18808;SDS011;9532;54.322;10.116;2022-12-05T15:35:16;6.67;;;4.00;;
18808;SDS011;9532;54.322;10.116;2022-12-05T15:37:45;7.30;;;4.30;;
18808;SDS011;9532;54.322;10.116;2022-12-05T15:40:20;8.00;;;4.57;;